createdAt,value
2022-12-03T00:00:46.657Z,89.26
2022-12-03T00:03:13.238Z,89.42
2022-12-03T00:05:48.329Z,89.37
2022-12-03T00:08:15.455Z,89.38
2022-12-03T00:10:41.930Z,89.68
2022-12-03T00:13:08.310Z,89.42
2022-12-03T00:15:34.808Z,89.45
2022-12-03T00:18:01.255Z,89.50
2022-12-03T00:20:27.684Z,89.51
2022-12-03T00:22:54.141Z,89.45
2022-12-03T00:25:20.586Z,89.68
2022-12-03T00:27:47.000Z,89.74
2022-12-03T00:30:14.661Z,89.84
2022-12-03T00:32:41.119Z,89.93
2022-12-03T00:35:07.847Z,90.02
2022-12-03T00:37:35.276Z,90.03
2022-12-03T00:40:03.248Z,89.95
2022-12-03T00:42:29.706Z,89.89
2022-12-03T00:44:56.189Z,89.97
2022-12-03T00:47:22.646Z,90.02
2022-12-03T00:49:49.066Z,90.04
2022-12-03T00:52:15.553Z,89.89
2022-12-03T00:54:41.948Z,90.00
2022-12-03T00:57:08.421Z,90.17
2022-12-03T00:59:34.953Z,90.19
2022-12-03T01:02:01.410Z,90.22
2022-12-03T01:04:27.881Z,90.37
2022-12-03T01:06:54.346Z,90.42
2022-12-03T01:09:20.870Z,90.50
2022-12-03T01:11:47.418Z,90.60
2022-12-03T01:14:17.655Z,90.62
2022-12-03T01:16:44.603Z,90.80
2022-12-03T01:19:15.697Z,90.80
2022-12-03T01:21:43.920Z,90.99
2022-12-03T01:24:10.472Z,91.08
2022-12-03T01:26:37.302Z,91.49
2022-12-03T01:29:04.360Z,91.59
2022-12-03T01:31:49.445Z,91.62
2022-12-03T01:34:16.355Z,91.62
2022-12-03T01:36:45.793Z,91.66
2022-12-03T01:39:12.298Z,91.79
2022-12-03T01:41:39.270Z,91.78
2022-12-03T01:44:28.071Z,91.98
2022-12-03T01:46:56.996Z,91.79
2022-12-03T01:49:27.167Z,91.91
2022-12-03T01:51:55.374Z,91.95
2022-12-03T01:54:31.127Z,92.19
2022-12-03T01:56:58.190Z,92.12
2022-12-03T01:59:34.225Z,91.91
2022-12-03T02:02:11.517Z,91.95
2022-12-03T02:04:38.079Z,92.01
2022-12-03T02:07:17.892Z,92.02
2022-12-03T02:09:44.442Z,92.07
2022-12-03T02:12:11.275Z,91.92
2022-12-03T02:14:37.781Z,91.83
2022-12-03T02:17:04.262Z,91.78
2022-12-03T02:19:30.705Z,91.56
2022-12-03T02:22:03.273Z,91.58
2022-12-03T02:24:39.225Z,91.67
2022-12-03T02:27:06.410Z,91.82
2022-12-03T02:29:32.871Z,91.78
2022-12-03T02:31:59.356Z,91.67
2022-12-03T02:34:38.344Z,91.64
2022-12-03T02:37:07.306Z,91.51
2022-12-03T02:39:36.714Z,91.54
2022-12-03T02:42:22.980Z,91.41
2022-12-03T02:44:49.496Z,91.20
2022-12-03T02:47:16.038Z,91.30
2022-12-03T02:49:43.095Z,91.38
2022-12-03T02:52:09.661Z,91.54
2022-12-03T02:54:36.133Z,91.51
2022-12-03T02:57:02.586Z,91.32
2022-12-03T02:59:29.151Z,91.57
2022-12-03T03:01:56.149Z,91.60
2022-12-03T03:04:24.855Z,91.55
2022-12-03T03:06:52.394Z,91.38
2022-12-03T03:09:20.235Z,91.37
2022-12-03T03:11:46.643Z,91.23
2022-12-03T03:14:13.380Z,91.27
2022-12-03T03:16:40.063Z,91.30
2022-12-03T03:19:06.606Z,91.18
2022-12-03T03:21:33.574Z,91.10
2022-12-03T03:23:59.981Z,91.24
2022-12-03T03:26:26.489Z,91.10
2022-12-03T03:28:53.024Z,91.07
2022-12-03T03:31:23.018Z,90.84
2022-12-03T03:33:50.057Z,90.93
2022-12-03T03:36:17.055Z,90.90
2022-12-03T03:38:43.528Z,90.96
2022-12-03T03:41:11.358Z,90.73
2022-12-03T03:43:39.814Z,90.66
2022-12-03T03:46:07.610Z,90.64
2022-12-03T03:48:35.305Z,90.44
2022-12-03T03:51:03.903Z,90.48
2022-12-03T03:53:30.720Z,90.49
2022-12-03T03:55:57.220Z,90.72
2022-12-03T03:58:23.778Z,90.64
2022-12-03T04:00:50.282Z,90.66
2022-12-03T04:03:16.689Z,90.88
2022-12-03T04:05:43.167Z,90.77
2022-12-03T04:08:09.657Z,90.87
2022-12-03T04:10:54.938Z,90.98
2022-12-03T04:13:21.362Z,90.97
2022-12-03T04:15:47.850Z,90.98
2022-12-03T04:18:32.796Z,90.88
2022-12-03T04:21:19.223Z,90.72
2022-12-03T04:23:45.628Z,90.91
2022-12-03T04:26:30.802Z,90.84
2022-12-03T04:28:57.438Z,90.74
2022-12-03T04:31:42.526Z,90.69
2022-12-03T04:34:28.338Z,90.74
2022-12-03T04:36:54.783Z,90.48
2022-12-03T04:39:21.675Z,90.24
2022-12-03T04:41:48.081Z,90.24
2022-12-03T04:44:33.353Z,90.13
2022-12-03T04:47:00.804Z,89.97
2022-12-03T04:49:27.205Z,89.89
2022-12-03T04:51:53.655Z,89.86
2022-12-03T04:54:20.066Z,89.93
2022-12-03T04:56:46.517Z,90.18
2022-12-03T04:59:16.308Z,90.05
2022-12-03T05:01:44.068Z,89.96
2022-12-03T05:04:11.315Z,89.98
2022-12-03T05:06:37.852Z,89.92
2022-12-03T05:09:04.589Z,90.04
2022-12-03T05:11:31.714Z,90.14
2022-12-03T05:13:58.308Z,90.34
2022-12-03T05:16:24.835Z,90.33
2022-12-03T05:18:51.324Z,89.98
2022-12-03T05:21:17.717Z,89.86
2022-12-03T05:23:44.089Z,89.89
2022-12-03T05:26:10.958Z,89.62
2022-12-03T05:28:37.319Z,89.47
2022-12-03T05:31:05.159Z,89.43
2022-12-03T05:33:32.075Z,89.44
2022-12-03T05:35:58.674Z,89.36
2022-12-03T05:38:25.144Z,89.28
2022-12-03T05:40:51.539Z,89.33
2022-12-03T05:43:17.920Z,89.29
2022-12-03T05:45:45.122Z,89.35
2022-12-03T05:48:13.898Z,89.51
2022-12-03T05:50:43.151Z,89.55
2022-12-03T05:53:10.024Z,89.44
2022-12-03T05:55:36.974Z,89.57
2022-12-03T05:58:03.635Z,89.78
2022-12-03T06:00:32.352Z,89.84
2022-12-03T06:02:59.479Z,89.75
2022-12-03T06:05:26.139Z,89.88
2022-12-03T06:07:53.126Z,89.86
2022-12-03T06:10:23.617Z,89.89
2022-12-03T06:12:50.985Z,89.91
2022-12-03T06:15:18.462Z,89.91
2022-12-03T06:17:44.968Z,89.91
2022-12-03T06:20:18.061Z,89.87
2022-12-03T06:22:44.866Z,89.87
2022-12-03T06:25:12.038Z,90.04
2022-12-03T06:27:38.541Z,89.81
2022-12-03T06:30:06.420Z,89.81
2022-12-03T06:32:32.868Z,90.02
2022-12-03T06:34:59.314Z,89.85
2022-12-03T06:37:25.711Z,89.75
2022-12-03T06:39:52.159Z,89.80
2022-12-03T06:42:18.633Z,89.70
2022-12-03T06:44:45.049Z,89.72
2022-12-03T06:47:11.458Z,89.72
2022-12-03T06:49:37.879Z,89.78
2022-12-03T06:52:04.409Z,89.66
2022-12-03T06:54:30.920Z,89.63
2022-12-03T06:56:57.319Z,89.68
2022-12-03T06:59:23.685Z,89.68
2022-12-03T07:01:50.233Z,89.62
2022-12-03T07:04:16.661Z,89.36
2022-12-03T07:06:43.707Z,89.26
2022-12-03T07:09:10.205Z,89.25
2022-12-03T07:11:42.313Z,89.32
2022-12-03T07:14:11.141Z,89.22
2022-12-03T07:16:38.774Z,89.20
2022-12-03T07:19:06.972Z,89.17
2022-12-03T07:21:34.045Z,88.99
2022-12-03T07:24:01.079Z,88.79
2022-12-03T07:26:27.560Z,88.61
2022-12-03T07:28:53.990Z,88.75
2022-12-03T07:31:20.469Z,88.53
2022-12-03T07:33:47.354Z,88.54
2022-12-03T07:36:13.897Z,88.72
2022-12-03T07:38:40.321Z,88.91
2022-12-03T07:41:07.051Z,88.89
2022-12-03T07:43:33.511Z,88.76
2022-12-03T07:45:59.863Z,88.90
2022-12-03T07:48:26.301Z,89.01
2022-12-03T07:50:52.741Z,88.86
2022-12-03T07:53:19.162Z,88.69
2022-12-03T07:55:45.694Z,88.72
2022-12-03T07:58:12.101Z,88.81
2022-12-03T08:00:38.700Z,88.85
2022-12-03T08:03:05.104Z,88.66
2022-12-03T08:05:31.563Z,88.61
2022-12-03T08:07:58.119Z,88.87
2022-12-03T08:10:25.570Z,89.00
2022-12-03T08:12:53.682Z,89.10
2022-12-03T08:15:26.737Z,89.03
2022-12-03T08:17:58.822Z,89.05
2022-12-03T08:20:33.128Z,88.93
2022-12-03T08:23:00.004Z,88.92
2022-12-03T08:25:30.073Z,88.85
2022-12-03T08:28:24.233Z,89.01
2022-12-03T08:31:12.887Z,89.05
2022-12-03T08:33:40.536Z,89.34
2022-12-03T08:36:17.033Z,89.16
2022-12-03T08:38:51.720Z,89.30
2022-12-03T08:41:39.541Z,89.43
2022-12-03T08:44:21.771Z,89.41
2022-12-03T08:47:05.841Z,89.22
2022-12-03T08:49:36.274Z,89.13
2022-12-03T08:52:13.478Z,89.11
2022-12-03T08:54:46.482Z,89.12
2022-12-03T08:57:36.212Z,88.89
2022-12-03T09:00:20.971Z,88.68
2022-12-03T09:03:12.285Z,88.73
2022-12-03T09:05:42.840Z,88.53
2022-12-03T09:08:16.185Z,88.44
2022-12-03T09:10:45.613Z,88.28
2022-12-03T09:13:18.880Z,88.30
2022-12-03T09:15:49.835Z,88.45
2022-12-03T09:18:16.239Z,88.43
2022-12-03T09:20:42.683Z,88.58
2022-12-03T09:23:09.060Z,88.53
2022-12-03T09:25:35.662Z,88.42
2022-12-03T09:28:02.087Z,88.50
2022-12-03T09:30:28.621Z,88.54
2022-12-03T09:32:55.054Z,88.53
2022-12-03T09:35:21.417Z,88.48
2022-12-03T09:37:47.785Z,88.61
2022-12-03T09:40:15.039Z,88.47
2022-12-03T09:42:41.570Z,88.49
2022-12-03T09:45:12.169Z,88.57
2022-12-03T09:47:45.151Z,88.62
2022-12-03T09:50:16.111Z,88.76
2022-12-03T09:52:42.610Z,88.54
2022-12-03T09:55:19.379Z,88.59
2022-12-03T09:57:45.772Z,88.56
2022-12-03T10:00:26.968Z,88.51
2022-12-03T10:02:56.569Z,88.50
2022-12-03T10:05:23.835Z,88.51
2022-12-03T10:07:52.227Z,88.30
2022-12-03T10:10:22.362Z,88.11
2022-12-03T10:12:52.616Z,88.07
2022-12-03T10:15:21.971Z,88.00
2022-12-03T10:17:51.006Z,87.86
2022-12-03T10:20:21.270Z,87.92
2022-12-03T10:22:48.761Z,87.87
2022-12-03T10:25:21.121Z,87.83
2022-12-03T10:27:56.749Z,87.56
2022-12-03T10:30:26.854Z,87.57
2022-12-03T10:32:53.305Z,87.62
2022-12-03T10:35:22.984Z,87.05
2022-12-03T10:38:04.979Z,87.14
2022-12-03T10:40:40.541Z,87.01
2022-12-03T10:43:22.406Z,87.01
2022-12-03T10:46:04.144Z,86.82
2022-12-03T10:48:31.316Z,86.58
2022-12-03T10:51:07.150Z,86.27
2022-12-03T10:53:36.442Z,86.19
2022-12-03T10:56:08.449Z,86.32
2022-12-03T10:58:37.221Z,86.30
2022-12-03T11:01:13.988Z,85.93
2022-12-03T11:03:40.525Z,85.61
2022-12-03T11:06:09.421Z,85.17
2022-12-03T11:08:37.078Z,84.76
2022-12-03T11:11:05.753Z,84.82
2022-12-03T11:13:32.122Z,84.71
2022-12-03T11:16:03.537Z,85.07
2022-12-03T11:18:36.010Z,84.90
2022-12-03T11:21:06.051Z,84.12
2022-12-03T11:23:44.825Z,84.22
2022-12-03T11:26:18.863Z,84.24
2022-12-03T11:28:46.020Z,84.10
2022-12-03T11:31:34.180Z,83.55
2022-12-03T11:34:22.517Z,83.98
2022-12-03T11:37:11.072Z,83.21
2022-12-03T11:39:49.789Z,83.24
2022-12-03T11:42:28.499Z,82.98
2022-12-03T11:45:04.082Z,83.31
2022-12-03T11:47:43.451Z,83.01
2022-12-03T11:50:28.925Z,82.69
2022-12-03T11:53:00.514Z,83.09
2022-12-03T11:55:40.324Z,83.18
2022-12-03T12:01:47.697Z,83.49
2022-12-03T12:04:46.482Z,83.09
2022-12-03T12:07:42.628Z,82.87
2022-12-03T12:10:09.569Z,82.84
2022-12-03T12:12:51.129Z,82.52
2022-12-03T12:15:39.338Z,82.72
2022-12-03T12:18:36.820Z,82.73
2022-12-03T12:21:41.401Z,82.58
2022-12-03T12:24:32.981Z,82.54
2022-12-03T12:27:02.806Z,82.63
2022-12-03T12:29:29.180Z,82.48
2022-12-03T12:32:12.819Z,82.34
2022-12-03T12:34:41.360Z,82.16
2022-12-03T12:37:14.204Z,81.71
2022-12-03T12:39:40.787Z,81.82
2022-12-03T12:42:30.424Z,82.07
2022-12-03T12:45:08.872Z,81.99
2022-12-03T12:47:36.279Z,82.14
2022-12-03T12:50:10.623Z,82.41
2022-12-03T12:52:48.352Z,82.57
2022-12-03T12:55:16.537Z,82.35
2022-12-03T12:57:43.815Z,82.67
2022-12-03T13:00:28.549Z,82.60
2022-12-03T13:02:59.864Z,82.72
2022-12-03T13:05:32.056Z,82.75
2022-12-03T13:07:58.571Z,82.90
2022-12-03T13:10:34.173Z,82.98
2022-12-03T13:13:29.633Z,83.15
2022-12-03T13:15:56.035Z,82.98
2022-12-03T13:18:39.646Z,82.85
2022-12-03T13:21:23.645Z,82.97
2022-12-03T13:23:55.573Z,83.33
2022-12-03T13:26:38.362Z,83.43
2022-12-03T13:29:16.452Z,83.26
2022-12-03T13:31:51.884Z,83.54
2022-12-03T13:34:21.988Z,83.47
2022-12-03T13:36:55.288Z,83.54
2022-12-03T13:39:27.048Z,83.52
2022-12-03T13:42:12.474Z,83.61
2022-12-03T13:44:47.065Z,83.63
2022-12-03T13:47:18.513Z,83.77
2022-12-03T13:49:54.469Z,83.84
2022-12-03T13:52:25.013Z,83.76
2022-12-03T13:54:54.785Z,83.98
2022-12-03T13:57:22.041Z,84.20
2022-12-03T13:59:48.552Z,84.10
2022-12-03T14:02:14.977Z,84.26
2022-12-03T14:04:41.765Z,84.57
2022-12-03T14:07:08.155Z,84.35
2022-12-03T14:09:34.539Z,84.20
2022-12-03T14:12:19.767Z,84.22
2022-12-03T14:14:46.156Z,84.41
2022-12-03T14:17:12.577Z,84.39
2022-12-03T14:19:38.981Z,84.54
2022-12-03T14:22:07.911Z,84.69
2022-12-03T14:24:34.317Z,84.70
2022-12-03T14:27:00.754Z,84.70
2022-12-03T14:29:27.134Z,84.82
2022-12-03T14:31:53.736Z,84.75
2022-12-03T14:34:20.354Z,84.74
2022-12-03T14:36:46.745Z,84.64
2022-12-03T14:39:13.121Z,84.89
2022-12-03T14:41:58.316Z,84.87
2022-12-03T14:44:25.266Z,85.14
2022-12-03T14:46:56.824Z,85.15
2022-12-03T14:49:23.899Z,85.14
2022-12-03T14:51:50.355Z,85.19
2022-12-03T14:54:16.787Z,85.06
2022-12-03T14:56:43.182Z,85.02
2022-12-03T14:59:09.546Z,84.89
2022-12-03T15:01:36.064Z,84.94
2022-12-03T15:04:02.598Z,84.99
2022-12-03T15:06:29.045Z,84.92
2022-12-03T15:08:55.485Z,85.02
2022-12-03T15:11:21.884Z,85.07
2022-12-03T15:13:48.686Z,84.96
2022-12-03T15:16:15.110Z,85.14
2022-12-03T15:18:41.589Z,85.21
2022-12-03T15:21:08.025Z,85.37
2022-12-03T15:23:34.440Z,85.36
2022-12-03T15:26:00.858Z,85.40
2022-12-03T15:28:27.680Z,85.45
2022-12-03T15:30:54.189Z,85.51
2022-12-03T15:33:20.619Z,85.54
2022-12-03T15:35:47.276Z,85.62
2022-12-03T15:38:13.812Z,85.49
2022-12-03T15:40:40.482Z,85.64
2022-12-03T15:43:08.618Z,85.73
2022-12-03T15:45:35.705Z,85.70
2022-12-03T15:48:02.204Z,85.72
2022-12-03T15:50:28.984Z,85.77
2022-12-03T15:52:55.688Z,85.70
2022-12-03T15:55:22.292Z,85.70
2022-12-03T15:57:49.261Z,85.91
2022-12-03T16:00:16.293Z,85.79
2022-12-03T16:02:47.523Z,85.69
2022-12-03T16:05:17.865Z,85.63
2022-12-03T16:07:44.304Z,85.83
2022-12-03T16:10:11.558Z,85.86
2022-12-03T16:12:37.979Z,85.84
2022-12-03T16:15:04.907Z,85.88
2022-12-03T16:17:31.326Z,85.74
2022-12-03T16:19:57.720Z,85.77
2022-12-03T16:22:24.179Z,85.78
2022-12-03T16:24:50.608Z,85.76
2022-12-03T16:27:19.570Z,85.60
2022-12-03T16:29:48.119Z,85.57
2022-12-03T16:32:14.533Z,85.41
2022-12-03T16:34:41.048Z,85.41
2022-12-03T16:37:08.299Z,85.54
2022-12-03T16:39:34.732Z,85.34
2022-12-03T16:42:01.167Z,85.48
2022-12-03T16:44:32.566Z,85.69
2022-12-03T16:47:01.487Z,85.77
2022-12-03T16:49:28.333Z,85.63
2022-12-03T16:51:54.744Z,85.59
2022-12-03T16:54:21.583Z,85.29
2022-12-03T16:56:48.072Z,85.11
2022-12-03T16:59:14.559Z,85.07
2022-12-03T17:01:41.073Z,85.05
2022-12-03T17:04:07.577Z,85.21
2022-12-03T17:06:33.972Z,85.35
2022-12-03T17:09:00.421Z,85.50
2022-12-03T17:11:26.835Z,85.49
2022-12-03T17:13:53.240Z,85.46
2022-12-03T17:16:19.718Z,85.62
2022-12-03T17:18:46.133Z,85.68
2022-12-03T17:21:12.550Z,85.72
2022-12-03T17:23:38.962Z,85.72
2022-12-03T17:26:05.386Z,85.86
2022-12-03T17:28:31.823Z,85.82
2022-12-03T17:30:58.382Z,85.92
2022-12-03T17:33:24.851Z,86.01
2022-12-03T17:35:51.234Z,85.99
2022-12-03T17:38:17.635Z,86.08
2022-12-03T17:40:43.977Z,86.16
2022-12-03T17:43:10.375Z,86.09
2022-12-03T17:45:36.835Z,86.31
2022-12-03T17:48:03.398Z,86.28
2022-12-03T17:50:29.808Z,86.37
2022-12-03T17:52:56.194Z,86.36
2022-12-03T17:55:32.142Z,86.41
2022-12-03T17:58:03.337Z,86.55
2022-12-03T18:00:30.170Z,86.78
2022-12-03T18:02:56.590Z,86.71
2022-12-03T18:05:23.112Z,86.52
2022-12-03T18:07:50.772Z,86.67
2022-12-03T18:10:17.809Z,86.48
2022-12-03T18:12:44.236Z,86.42
2022-12-03T18:15:10.785Z,86.33
2022-12-03T18:17:37.277Z,86.42
2022-12-03T18:20:04.321Z,86.44
2022-12-03T18:22:31.226Z,86.34
2022-12-03T18:24:57.842Z,86.34
2022-12-03T18:27:24.645Z,86.36
2022-12-03T18:29:51.117Z,86.45
2022-12-03T18:32:30.478Z,86.54
2022-12-03T18:34:57.804Z,86.53
2022-12-03T18:37:29.791Z,86.66
2022-12-03T18:39:57.587Z,86.63
2022-12-03T18:42:24.716Z,86.69
2022-12-03T18:44:54.468Z,86.57
2022-12-03T18:47:24.260Z,86.64
2022-12-03T18:49:51.198Z,86.73
2022-12-03T18:52:21.179Z,86.66
2022-12-03T18:54:48.101Z,86.89
2022-12-03T18:57:15.065Z,86.84
2022-12-03T18:59:41.543Z,86.82
2022-12-03T19:02:22.097Z,87.05
2022-12-03T19:05:01.554Z,87.03
2022-12-03T19:07:28.010Z,87.12
2022-12-03T19:09:54.779Z,87.01
2022-12-03T19:12:21.473Z,87.32
2022-12-03T19:14:47.858Z,87.38
2022-12-03T19:17:14.317Z,87.52
2022-12-03T19:19:40.812Z,87.41
2022-12-03T19:22:07.347Z,87.45
2022-12-03T19:24:33.921Z,87.41
2022-12-03T19:27:00.390Z,87.31
2022-12-03T19:29:27.104Z,87.38
2022-12-03T19:31:53.767Z,87.42
2022-12-03T19:34:20.459Z,87.39
2022-12-03T19:36:47.615Z,87.40
2022-12-03T19:39:14.362Z,87.51
2022-12-03T19:41:43.138Z,87.69
2022-12-03T19:44:14.137Z,87.75
2022-12-03T19:46:41.636Z,87.77
2022-12-03T19:49:08.436Z,87.63
2022-12-03T19:51:35.901Z,87.61
2022-12-03T19:54:07.081Z,87.58
2022-12-03T19:56:34.276Z,87.44
2022-12-03T19:59:01.134Z,87.58
2022-12-03T20:01:33.447Z,87.54
2022-12-03T20:04:01.921Z,87.82
2022-12-03T20:06:31.654Z,87.83
2022-12-03T20:09:00.224Z,87.66
2022-12-03T20:11:32.261Z,87.70
2022-12-03T20:14:01.263Z,87.74
2022-12-03T20:16:28.870Z,87.87
2022-12-03T20:18:58.147Z,87.81
2022-12-03T20:21:24.671Z,87.77
2022-12-03T20:23:51.122Z,87.80
2022-12-03T20:26:19.869Z,87.83
2022-12-03T20:28:48.008Z,87.80
2022-12-03T20:31:17.484Z,87.79
2022-12-03T20:33:46.397Z,87.81
2022-12-03T20:36:14.498Z,87.96
2022-12-03T20:38:41.025Z,87.95
2022-12-03T20:41:16.332Z,87.99
2022-12-03T20:43:42.763Z,88.04
2022-12-03T20:46:15.226Z,88.17
2022-12-03T20:48:43.038Z,88.34
2022-12-03T20:51:12.235Z,88.50
2022-12-03T20:53:39.132Z,88.66
2022-12-03T20:56:07.360Z,88.66
2022-12-03T20:58:35.077Z,88.68
2022-12-03T21:01:16.152Z,88.57
2022-12-03T21:03:44.000Z,88.72
2022-12-03T21:06:10.997Z,88.79
2022-12-03T21:08:42.484Z,88.92
2022-12-03T21:11:15.972Z,89.20
2022-12-03T21:13:43.707Z,89.17
2022-12-03T21:16:13.475Z,89.13
2022-12-03T21:18:40.455Z,89.21
2022-12-03T21:21:07.737Z,89.25
2022-12-03T21:23:34.779Z,89.36
2022-12-03T21:26:06.458Z,89.30
2022-12-03T21:28:33.154Z,89.29
2022-12-03T21:31:05.192Z,89.23
2022-12-03T21:33:32.329Z,89.21
2022-12-03T21:36:00.024Z,89.18
2022-12-03T21:38:28.375Z,89.31
2022-12-03T21:40:55.816Z,89.28
2022-12-03T21:43:22.880Z,89.53
2022-12-03T21:45:49.564Z,89.53
2022-12-03T21:48:17.228Z,89.50
2022-12-03T21:50:44.516Z,89.44
2022-12-03T21:53:11.305Z,89.65
2022-12-03T21:55:41.202Z,89.62
2022-12-03T21:58:08.714Z,89.70
2022-12-03T22:00:35.900Z,89.64
2022-12-03T22:03:02.491Z,89.90
2022-12-03T22:05:28.995Z,89.87
2022-12-03T22:07:55.445Z,89.95
2022-12-03T22:10:22.075Z,89.92
2022-12-03T22:12:48.508Z,89.94
2022-12-03T22:15:18.858Z,90.00
2022-12-03T22:17:46.062Z,90.10
2022-12-03T22:20:12.533Z,90.11
2022-12-03T22:22:38.973Z,90.16
2022-12-03T22:25:05.543Z,90.26
2022-12-03T22:27:31.898Z,90.30
2022-12-03T22:29:58.329Z,90.24
2022-12-03T22:32:24.885Z,90.48
2022-12-03T22:34:51.384Z,90.55
2022-12-03T22:37:17.807Z,90.49
2022-12-03T22:39:44.240Z,90.46
2022-12-03T22:42:10.705Z,90.38
2022-12-03T22:44:37.099Z,90.39
2022-12-03T22:47:03.771Z,90.38
2022-12-03T22:49:30.169Z,90.40
2022-12-03T22:51:56.605Z,90.36
2022-12-03T22:54:24.261Z,90.40
2022-12-03T22:56:50.933Z,90.53
2022-12-03T22:59:17.418Z,90.46
2022-12-03T23:01:43.935Z,90.40
2022-12-03T23:04:11.450Z,90.47
2022-12-03T23:06:38.726Z,90.56
2022-12-03T23:09:06.969Z,90.51
2022-12-03T23:11:33.933Z,90.61
2022-12-03T23:14:00.411Z,90.52
2022-12-03T23:16:32.218Z,90.74
2022-12-03T23:19:00.197Z,90.64
2022-12-03T23:21:30.138Z,90.78
2022-12-03T23:23:58.299Z,90.73
2022-12-03T23:26:24.733Z,90.94
2022-12-03T23:28:51.251Z,90.67
2022-12-03T23:31:24.191Z,90.85
2022-12-03T23:33:51.693Z,90.79
2022-12-03T23:36:18.676Z,90.93
2022-12-03T23:38:45.727Z,90.99
2022-12-03T23:41:15.696Z,90.91
2022-12-03T23:43:42.809Z,90.86
2022-12-03T23:46:21.257Z,90.96
2022-12-03T23:48:47.859Z,90.97
2022-12-03T23:51:17.001Z,91.16
2022-12-03T23:53:44.735Z,91.22
2022-12-03T23:56:14.806Z,91.23
2022-12-03T23:58:41.733Z,91.26
